Používaním stránok prevádzkovaných PROFIPILOT, s.r.o. súhlasíte s používaním cookies, ktoré nám pomáhajú zabezpečiť lepšie služby.OK

Briefing

MAPA | METAR | TAF | METEO SITUÁCIA
MAPA | METAR | TAF | METEO SITUÁCIA

Predpoveď na dnes

NOC: Oblačno až zamračené, ojedinele prechodne aj zmenšená oblačnosť. Ojedinele slabé sneženie, v nížinách aj dážď alebo dážď so snehom. Ojedinele poľadovica. Najnižšia nočná teplota +2 až -2, na severe Žilinského kraja a na Spiši miestami okolo -4 st. Slabý, na juhu západného a stredného Slovenska východný vietor 3 až 8 m/s (10 až 30 km/h). DEŇ: Oblačno až zamračené, zrána ojedinele aj zmenšená oblačnosť. Postupne na viacerých miestach sneženie, v polohách do cca 300 miestami aj dážď so snehom alebo dážď. Ojedinele poľadovica. Vo východnej polovici Košického a Prešovského kraja zrážky väčšinou dažďové. Najvyššia denná teplota 1 až 6, na krajnom východe miestami okolo 8 st. Teplota na horách vo výške 1500 m okolo 0 st. Severovýchodný až východný vietor 3 až 8 m/s (10 až 30 km/h), na juhu v nárazoch miestami okolo 14 m/s (50 km/h). Na východe väčšinou slabý vietor. Na horách spočiatku prudký vietor. Predpokladané množstvo zrážok: NOC: do 1 mm / do 1 cm snehu DEŇ: do 7, v južnej polovici západného a stredného Slovenska miestami okolo 10 mm / do 5 cm snehu Tendencia tlaku vzduchu: ustálený stav

SHMÚ, OMPaV, NP 19.11.2018 20:55 SEČ

MAPA | METAR | TAF | METEO SITUÁCIA

TAF - Letisková predpoveď

19.11.2018 - 23:00 UTC (Včera)

TAF LZIB 192300Z 2000/2100 06005KT 9999 -RA SCT017 OVC030
     BECMG 2003/2005 08014KT BKN013 OVC025
     TEMPO 2005/2011 4000 RASN OVC008
     BECMG 2015/2017 SCT005 BKN020=
 TAF LZKZ 192300Z 2000/2100 01010KT 9999 BKN030
     BECMG 2012/2014 -RA SCT014 OVC030
     TEMPO 2012/2100 5000 RA OVC012=
 TAF LZTT 192300Z 2000/2100 07004KT 9999 OVC005
     PROB40 TEMPO 2000/2008 4500 -SG BR BKN002
     TEMPO 2008/2012 SCT010 BKN030
     BECMG 2011/2013 5000 -SN BKN010 OVC020
     PROB30 TEMPO 2014/2100 2000 SN OVC004=
 

19.11.2018 - 05:00 UTC (Včera)

TAF LZSL 190500Z 1906/1915 00000KT 3000 BCFG FEW002 SCT030 BKN045
     BECMG 1906/1908 VRB02KT 4000 BR SCT025 BKN040
     TEMPO 1908/1915 1500 RASN BR SCT010 OVC022=
 TAF LZPP 190500Z 1906/1915 36008KT 9999 OVC045
     BECMG 1908/1910 8000 -SNRA FEW010 SCT015 BKN030
     TEMPO 1910/1915 3000 RASN SCT007 OVC020=
 TAF LZZI 190500Z 1906/1915 06005KT CAVOK
     BECMG 1908/1910 9999 SCT017 BKN037
     PROB40 TEMPO 1910/1912 7000 -RASN FEW015 OVC030=
 
MAPA | METAR | TAF | METEO SITUÁCIA

METAR - Letisková meteo správa

Letisková meteorologická správa METAR

Meteorologické informácie z ďalších profesionálnych meteorologických staníc SHMÚ zobrazené v tvare zodpovedajúcom pravidlám kódovania správ METAR sú uvedené v položke „METSYN Informácie o správe METAR Údaje nie sú momentálne k dispozícii Údaje nie sú momentálne k dispozícii
načítavam...